sensor_id;sensor_type;location;lat;lon;timestamp;temperature;humidity
78516;SHT31;67815;51.990;5.688;2023-04-03T00:04:26;7.7;53.5
78516;SHT31;67815;51.990;5.688;2023-04-03T00:06:56;7.7;53.6
78516;SHT31;67815;51.990;5.688;2023-04-03T00:09:25;7.7;53.8
78516;SHT31;67815;51.990;5.688;2023-04-03T00:11:55;7.6;53.6
78516;SHT31;67815;51.990;5.688;2023-04-03T00:14:24;7.6;53.5
78516;SHT31;67815;51.990;5.688;2023-04-03T00:16:54;7.6;53.5
78516;SHT31;67815;51.990;5.688;2023-04-03T00:22:28;7.5;53.1
78516;SHT31;67815;51.990;5.688;2023-04-03T00:28:20;7.5;52.8
78516;SHT31;67815;51.990;5.688;2023-04-03T00:31:08;7.4;52.9
78516;SHT31;67815;51.990;5.688;2023-04-03T00:33:37;7.4;53.2
78516;SHT31;67815;51.990;5.688;2023-04-03T00:36:09;7.4;53.5
78516;SHT31;67815;51.990;5.688;2023-04-03T00:38:40;7.3;53.2
78516;SHT31;67815;51.990;5.688;2023-04-03T00:41:09;7.3;53.9
78516;SHT31;67815;51.990;5.688;2023-04-03T00:43:39;7.3;54.2
78516;SHT31;67815;51.990;5.688;2023-04-03T00:46:10;7.2;54.0
78516;SHT31;67815;51.990;5.688;2023-04-03T00:48:43;7.2;54.0
78516;SHT31;67815;51.990;5.688;2023-04-03T00:51:19;7.2;54.1
78516;SHT31;67815;51.990;5.688;2023-04-03T00:53:52;7.1;54.0
78516;SHT31;67815;51.990;5.688;2023-04-03T00:56:25;7.1;54.5
78516;SHT31;67815;51.990;5.688;2023-04-03T00:59:00;7.1;54.0
78516;SHT31;67815;51.990;5.688;2023-04-03T01:01:54;7.1;54.5
78516;SHT31;67815;51.990;5.688;2023-04-03T01:04:32;7.0;54.5
78516;SHT31;67815;51.990;5.688;2023-04-03T01:07:06;7.0;54.0
78516;SHT31;67815;51.990;5.688;2023-04-03T01:09:39;7.0;54.7
78516;SHT31;67815;51.990;5.688;2023-04-03T01:12:17;7.0;54.3
78516;SHT31;67815;51.990;5.688;2023-04-03T01:14:58;6.9;54.6
78516;SHT31;67815;51.990;5.688;2023-04-03T01:17:34;6.9;55.1
78516;SHT31;67815;51.990;5.688;2023-04-03T01:20:28;6.9;54.7
78516;SHT31;67815;51.990;5.688;2023-04-03T01:23:10;6.9;55.6
78516;SHT31;67815;51.990;5.688;2023-04-03T01:25:43;6.9;55.3
78516;SHT31;67815;51.990;5.688;2023-04-03T01:28:17;6.8;55.2
78516;SHT31;67815;51.990;5.688;2023-04-03T01:30:51;6.8;55.5
78516;SHT31;67815;51.990;5.688;2023-04-03T01:33:58;6.8;55.8
78516;SHT31;67815;51.990;5.688;2023-04-03T01:36:30;6.8;55.3
78516;SHT31;67815;51.990;5.688;2023-04-03T01:39:01;6.8;55.7
78516;SHT31;67815;51.990;5.688;2023-04-03T01:41:31;6.8;55.3
78516;SHT31;67815;51.990;5.688;2023-04-03T01:44:00;6.8;55.5
78516;SHT31;67815;51.990;5.688;2023-04-03T01:46:31;6.8;55.7
78516;SHT31;67815;51.990;5.688;2023-04-03T01:49:02;6.8;55.2
78516;SHT31;67815;51.990;5.688;2023-04-03T01:51:32;6.8;55.7
78516;SHT31;67815;51.990;5.688;2023-04-03T01:54:03;6.8;55.2
78516;SHT31;67815;51.990;5.688;2023-04-03T01:56:33;6.7;56.2
78516;SHT31;67815;51.990;5.688;2023-04-03T01:59:03;6.7;55.9
78516;SHT31;67815;51.990;5.688;2023-04-03T02:01:57;6.7;55.9
78516;SHT31;67815;51.990;5.688;2023-04-03T02:04:26;6.7;56.2
78516;SHT31;67815;51.990;5.688;2023-04-03T02:06:56;6.7;55.8
78516;SHT31;67815;51.990;5.688;2023-04-03T02:12:30;6.7;56.4
78516;SHT31;67815;51.990;5.688;2023-04-03T02:14:59;6.6;56.3
78516;SHT31;67815;51.990;5.688;2023-04-03T02:17:29;6.6;56.0
78516;SHT31;67815;51.990;5.688;2023-04-03T02:19:58;6.6;56.4
78516;SHT31;67815;51.990;5.688;2023-04-03T02:22:28;6.6;56.5
78516;SHT31;67815;51.990;5.688;2023-04-03T02:24:58;6.6;56.7
78516;SHT31;67815;51.990;5.688;2023-04-03T02:27:35;6.6;56.8
78516;SHT31;67815;51.990;5.688;2023-04-03T02:33:27;6.5;57.1
78516;SHT31;67815;51.990;5.688;2023-04-03T02:35:58;6.5;57.6
78516;SHT31;67815;51.990;5.688;2023-04-03T02:38:28;6.5;57.3
78516;SHT31;67815;51.990;5.688;2023-04-03T02:41:01;6.5;57.7
78516;SHT31;67815;51.990;5.688;2023-04-03T02:46:36;6.5;57.6
78516;SHT31;67815;51.990;5.688;2023-04-03T02:49:08;6.5;57.7
78516;SHT31;67815;51.990;5.688;2023-04-03T02:51:38;6.4;57.7
78516;SHT31;67815;51.990;5.688;2023-04-03T02:54:08;6.4;58.0
78516;SHT31;67815;51.990;5.688;2023-04-03T02:56:38;6.4;58.0
78516;SHT31;67815;51.990;5.688;2023-04-03T02:59:07;6.4;58.1
78516;SHT31;67815;51.990;5.688;2023-04-03T03:01:37;6.4;58.0
78516;SHT31;67815;51.990;5.688;2023-04-03T03:04:09;6.4;58.0
78516;SHT31;67815;51.990;5.688;2023-04-03T03:06:38;6.4;57.6
78516;SHT31;67815;51.990;5.688;2023-04-03T03:09:08;6.3;58.1
78516;SHT31;67815;51.990;5.688;2023-04-03T03:11:38;6.3;58.1
78516;SHT31;67815;51.990;5.688;2023-04-03T03:14:08;6.3;58.1
78516;SHT31;67815;51.990;5.688;2023-04-03T03:16:56;6.3;58.2
78516;SHT31;67815;51.990;5.688;2023-04-03T03:19:25;6.2;58.2
78516;SHT31;67815;51.990;5.688;2023-04-03T03:21:55;6.2;58.1
78516;SHT31;67815;51.990;5.688;2023-04-03T03:24:24;6.2;58.5
78516;SHT31;67815;51.990;5.688;2023-04-03T03:26:54;6.2;58.4
78516;SHT31;67815;51.990;5.688;2023-04-03T03:30:00;6.1;58.7
78516;SHT31;67815;51.990;5.688;2023-04-03T03:32:31;6.1;58.6
78516;SHT31;67815;51.990;5.688;2023-04-03T03:35:01;6.1;59.0
78516;SHT31;67815;51.990;5.688;2023-04-03T03:37:30;6.1;59.2
78516;SHT31;67815;51.990;5.688;2023-04-03T03:40:00;6.1;59.2
78516;SHT31;67815;51.990;5.688;2023-04-03T03:42:29;6.0;59.2
78516;SHT31;67815;51.990;5.688;2023-04-03T03:44:59;6.0;59.2
78516;SHT31;67815;51.990;5.688;2023-04-03T03:47:29;6.0;59.5
78516;SHT31;67815;51.990;5.688;2023-04-03T03:49:58;6.0;59.1
78516;SHT31;67815;51.990;5.688;2023-04-03T03:52:28;6.0;59.3
78516;SHT31;67815;51.990;5.688;2023-04-03T03:54:58;6.0;59.5
78516;SHT31;67815;51.990;5.688;2023-04-03T03:57:28;6.0;59.4
78516;SHT31;67815;51.990;5.688;2023-04-03T03:59:58;5.9;59.5
78516;SHT31;67815;51.990;5.688;2023-04-03T04:02:27;5.9;59.3
78516;SHT31;67815;51.990;5.688;2023-04-03T04:04:57;5.9;59.5
78516;SHT31;67815;51.990;5.688;2023-04-03T04:07:27;5.9;59.6
78516;SHT31;67815;51.990;5.688;2023-04-03T04:09:58;5.9;59.8
78516;SHT31;67815;51.990;5.688;2023-04-03T04:12:28;5.8;59.8
78516;SHT31;67815;51.990;5.688;2023-04-03T04:14:58;5.8;59.8
78516;SHT31;67815;51.990;5.688;2023-04-03T04:17:29;5.8;59.7
78516;SHT31;67815;51.990;5.688;2023-04-03T04:19:59;5.8;59.8
78516;SHT31;67815;51.990;5.688;2023-04-03T04:22:28;5.8;59.8
78516;SHT31;67815;51.990;5.688;2023-04-03T04:25:00;5.7;59.7
78516;SHT31;67815;51.990;5.688;2023-04-03T04:27:29;5.7;59.9
78516;SHT31;67815;51.990;5.688;2023-04-03T04:33:22;5.7;59.9
78516;SHT31;67815;51.990;5.688;2023-04-03T04:35:53;5.7;59.8
78516;SHT31;67815;51.990;5.688;2023-04-03T04:38:23;5.7;59.9
78516;SHT31;67815;51.990;5.688;2023-04-03T04:40:53;5.7;60.0
78516;SHT31;67815;51.990;5.688;2023-04-03T04:43:23;5.7;60.0
78516;SHT31;67815;51.990;5.688;2023-04-03T04:46:02;5.6;60.0
78516;SHT31;67815;51.990;5.688;2023-04-03T04:48:33;5.6;60.3
78516;SHT31;67815;51.990;5.688;2023-04-03T04:51:04;5.6;60.0
78516;SHT31;67815;51.990;5.688;2023-04-03T04:53:34;5.6;60.2
78516;SHT31;67815;51.990;5.688;2023-04-03T04:56:04;5.5;60.3
78516;SHT31;67815;51.990;5.688;2023-04-03T04:58:34;5.5;60.5
78516;SHT31;67815;51.990;5.688;2023-04-03T05:01:06;5.5;60.6
78516;SHT31;67815;51.990;5.688;2023-04-03T05:03:39;5.4;60.8
78516;SHT31;67815;51.990;5.688;2023-04-03T05:06:08;5.4;60.9
78516;SHT31;67815;51.990;5.688;2023-04-03T05:08:38;5.4;60.9
78516;SHT31;67815;51.990;5.688;2023-04-03T05:11:08;5.4;60.9
78516;SHT31;67815;51.990;5.688;2023-04-03T05:13:37;5.3;61.1
78516;SHT31;67815;51.990;5.688;2023-04-03T05:16:09;5.3;60.9
78516;SHT31;67815;51.990;5.688;2023-04-03T05:18:39;5.3;60.9
78516;SHT31;67815;51.990;5.688;2023-04-03T05:21:09;5.3;61.0
78516;SHT31;67815;51.990;5.688;2023-04-03T05:23:38;5.3;60.8
78516;SHT31;67815;51.990;5.688;2023-04-03T05:26:08;5.3;61.0
78516;SHT31;67815;51.990;5.688;2023-04-03T05:28:38;5.3;60.9
78516;SHT31;67815;51.990;5.688;2023-04-03T05:31:08;5.3;60.7
78516;SHT31;67815;51.990;5.688;2023-04-03T05:33:37;5.3;60.7
78516;SHT31;67815;51.990;5.688;2023-04-03T05:36:08;5.3;61.0
78516;SHT31;67815;51.990;5.688;2023-04-03T05:38:40;5.3;60.9
78516;SHT31;67815;51.990;5.688;2023-04-03T05:41:11;5.3;61.0
78516;SHT31;67815;51.990;5.688;2023-04-03T05:43:40;5.2;61.1
78516;SHT31;67815;51.990;5.688;2023-04-03T05:46:16;5.2;60.9
78516;SHT31;67815;51.990;5.688;2023-04-03T05:48:48;5.2;61.0
78516;SHT31;67815;51.990;5.688;2023-04-03T05:51:22;5.2;61.1
78516;SHT31;67815;51.990;5.688;2023-04-03T05:53:59;5.2;60.9
78516;SHT31;67815;51.990;5.688;2023-04-03T05:56:30;5.2;60.8
78516;SHT31;67815;51.990;5.688;2023-04-03T05:58:59;5.2;60.8
78516;SHT31;67815;51.990;5.688;2023-04-03T06:01:29;5.2;61.1
78516;SHT31;67815;51.990;5.688;2023-04-03T06:03:59;5.2;60.9
78516;SHT31;67815;51.990;5.688;2023-04-03T06:06:47;5.2;61.1
78516;SHT31;67815;51.990;5.688;2023-04-03T06:09:20;5.2;61.4
78516;SHT31;67815;51.990;5.688;2023-04-03T06:11:50;5.2;61.5
78516;SHT31;67815;51.990;5.688;2023-04-03T06:14:21;5.2;61.5
78516;SHT31;67815;51.990;5.688;2023-04-03T06:16:51;5.2;61.4
78516;SHT31;67815;51.990;5.688;2023-04-03T06:19:21;5.2;61.7
78516;SHT31;67815;51.990;5.688;2023-04-03T06:21:51;5.2;61.5
78516;SHT31;67815;51.990;5.688;2023-04-03T06:24:22;5.2;61.8
78516;SHT31;67815;51.990;5.688;2023-04-03T06:26:52;5.2;61.7
78516;SHT31;67815;51.990;5.688;2023-04-03T06:29:24;5.2;61.9
78516;SHT31;67815;51.990;5.688;2023-04-03T06:31:54;5.2;61.2
78516;SHT31;67815;51.990;5.688;2023-04-03T06:34:24;5.2;62.0
78516;SHT31;67815;51.990;5.688;2023-04-03T06:36:54;5.2;62.4
78516;SHT31;67815;51.990;5.688;2023-04-03T06:39:24;5.2;61.7
78516;SHT31;67815;51.990;5.688;2023-04-03T06:41:55;5.2;61.7
78516;SHT31;67815;51.990;5.688;2023-04-03T06:44:26;5.2;61.9
78516;SHT31;67815;51.990;5.688;2023-04-03T06:46:56;5.2;61.3
78516;SHT31;67815;51.990;5.688;2023-04-03T06:49:26;5.2;60.7
78516;SHT31;67815;51.990;5.688;2023-04-03T06:51:57;5.2;61.3
78516;SHT31;67815;51.990;5.688;2023-04-03T06:54:26;5.2;61.9
78516;SHT31;67815;51.990;5.688;2023-04-03T06:56:56;5.2;60.8
78516;SHT31;67815;51.990;5.688;2023-04-03T06:59:26;5.2;61.2
78516;SHT31;67815;51.990;5.688;2023-04-03T07:01:55;5.3;60.5
78516;SHT31;67815;51.990;5.688;2023-04-03T07:04:26;5.3;60.3
78516;SHT31;67815;51.990;5.688;2023-04-03T07:06:56;5.3;60.2
78516;SHT31;67815;51.990;5.688;2023-04-03T07:09:27;5.4;60.1
78516;SHT31;67815;51.990;5.688;2023-04-03T07:11:57;5.4;59.6
78516;SHT31;67815;51.990;5.688;2023-04-03T07:14:26;5.5;60.1
78516;SHT31;67815;51.990;5.688;2023-04-03T07:16:56;5.5;58.6
78516;SHT31;67815;51.990;5.688;2023-04-03T07:19:25;5.5;58.7
78516;SHT31;67815;51.990;5.688;2023-04-03T07:21:55;5.5;59.0
78516;SHT31;67815;51.990;5.688;2023-04-03T07:24:25;5.6;58.7
78516;SHT31;67815;51.990;5.688;2023-04-03T07:26:56;5.6;59.2
78516;SHT31;67815;51.990;5.688;2023-04-03T07:29:26;5.6;60.0
78516;SHT31;67815;51.990;5.688;2023-04-03T07:31:56;5.7;58.7
78516;SHT31;67815;51.990;5.688;2023-04-03T07:34:26;5.7;58.2
78516;SHT31;67815;51.990;5.688;2023-04-03T07:36:55;5.7;56.8
78516;SHT31;67815;51.990;5.688;2023-04-03T07:39:25;5.7;57.1
78516;SHT31;67815;51.990;5.688;2023-04-03T07:41:55;5.8;56.9
78516;SHT31;67815;51.990;5.688;2023-04-03T07:44:25;5.8;56.3
78516;SHT31;67815;51.990;5.688;2023-04-03T07:46:55;5.8;56.8
78516;SHT31;67815;51.990;5.688;2023-04-03T07:49:25;5.8;55.6
78516;SHT31;67815;51.990;5.688;2023-04-03T07:51:56;5.9;55.6
78516;SHT31;67815;51.990;5.688;2023-04-03T07:54:26;5.9;55.4
78516;SHT31;67815;51.990;5.688;2023-04-03T07:56:56;6.0;55.8
78516;SHT31;67815;51.990;5.688;2023-04-03T07:59:27;6.0;53.9
78516;SHT31;67815;51.990;5.688;2023-04-03T08:01:57;6.0;53.8
78516;SHT31;67815;51.990;5.688;2023-04-03T08:04:28;6.1;53.8
78516;SHT31;67815;51.990;5.688;2023-04-03T08:06:58;6.1;54.6
78516;SHT31;67815;51.990;5.688;2023-04-03T08:09:28;6.2;52.3
78516;SHT31;67815;51.990;5.688;2023-04-03T08:11:58;6.2;50.2
78516;SHT31;67815;51.990;5.688;2023-04-03T08:14:30;6.3;50.2
78516;SHT31;67815;51.990;5.688;2023-04-03T08:17:02;6.3;49.6
78516;SHT31;67815;51.990;5.688;2023-04-03T08:19:32;6.4;49.8
78516;SHT31;67815;51.990;5.688;2023-04-03T08:22:02;6.4;48.8
78516;SHT31;67815;51.990;5.688;2023-04-03T08:24:33;6.5;47.2
78516;SHT31;67815;51.990;5.688;2023-04-03T08:27:03;6.6;45.6
78516;SHT31;67815;51.990;5.688;2023-04-03T08:29:33;6.6;45.8
78516;SHT31;67815;51.990;5.688;2023-04-03T08:32:06;6.7;45.0
78516;SHT31;67815;51.990;5.688;2023-04-03T08:34:35;6.9;44.5
78516;SHT31;67815;51.990;5.688;2023-04-03T08:40:24;7.2;42.8
78516;SHT31;67815;51.990;5.688;2023-04-03T08:43:08;7.3;41.8
78516;SHT31;67815;51.990;5.688;2023-04-03T08:45:45;7.4;42.1
78516;SHT31;67815;51.990;5.688;2023-04-03T08:48:20;7.4;42.2
78516;SHT31;67815;51.990;5.688;2023-04-03T08:50:54;7.5;38.6
78516;SHT31;67815;51.990;5.688;2023-04-03T08:53:30;7.6;38.6
78516;SHT31;67815;51.990;5.688;2023-04-03T08:56:06;7.6;37.4
78516;SHT31;67815;51.990;5.688;2023-04-03T08:58:44;7.7;37.5
78516;SHT31;67815;51.990;5.688;2023-04-03T09:01:21;7.7;38.2
78516;SHT31;67815;51.990;5.688;2023-04-03T09:03:55;7.7;35.8
78516;SHT31;67815;51.990;5.688;2023-04-03T09:06:28;7.8;35.5
78516;SHT31;67815;51.990;5.688;2023-04-03T09:09:12;7.8;34.3
78516;SHT31;67815;51.990;5.688;2023-04-03T09:11:53;7.9;35.9
78516;SHT31;67815;51.990;5.688;2023-04-03T09:14:36;7.9;34.1
78516;SHT31;67815;51.990;5.688;2023-04-03T09:17:19;8.0;34.7
78516;SHT31;67815;51.990;5.688;2023-04-03T09:19:56;8.1;31.7
78516;SHT31;67815;51.990;5.688;2023-04-03T09:22:32;8.2;32.5
78516;SHT31;67815;51.990;5.688;2023-04-03T09:25:14;8.3;31.0
78516;SHT31;67815;51.990;5.688;2023-04-03T09:27:45;8.4;29.5
78516;SHT31;67815;51.990;5.688;2023-04-03T09:30:17;8.5;28.7
78516;SHT31;67815;51.990;5.688;2023-04-03T09:32:50;8.6;29.5
78516;SHT31;67815;51.990;5.688;2023-04-03T09:35:24;8.7;28.3
78516;SHT31;67815;51.990;5.688;2023-04-03T09:37:59;8.9;27.3
78516;SHT31;67815;51.990;5.688;2023-04-03T09:40:32;9.2;28.6
78516;SHT31;67815;51.990;5.688;2023-04-03T09:43:28;9.3;28.7
78516;SHT31;67815;51.990;5.688;2023-04-03T09:46:17;9.3;27.7
78516;SHT31;67815;51.990;5.688;2023-04-03T09:48:56;9.3;28.8
78516;SHT31;67815;51.990;5.688;2023-04-03T09:51:28;9.3;27.8
78516;SHT31;67815;51.990;5.688;2023-04-03T09:53:58;9.2;27.2
78516;SHT31;67815;51.990;5.688;2023-04-03T09:56:30;9.1;26.3
78516;SHT31;67815;51.990;5.688;2023-04-03T09:59:15;9.1;27.0
78516;SHT31;67815;51.990;5.688;2023-04-03T10:01:59;9.0;29.0
78516;SHT31;67815;51.990;5.688;2023-04-03T10:04:37;9.0;27.8
78516;SHT31;67815;51.990;5.688;2023-04-03T10:07:30;8.9;28.9
78516;SHT31;67815;51.990;5.688;2023-04-03T10:10:16;8.9;28.6
78516;SHT31;67815;51.990;5.688;2023-04-03T10:12:38;8.9;29.6
78516;SHT31;67815;51.990;5.688;2023-04-03T10:15:14;8.9;30.3
78516;SHT31;67815;51.990;5.688;2023-04-03T10:17:53;8.9;30.9
78516;SHT31;67815;51.990;5.688;2023-04-03T10:20:31;8.9;30.5
78516;SHT31;67815;51.990;5.688;2023-04-03T10:23:17;8.9;28.9
78516;SHT31;67815;51.990;5.688;2023-04-03T10:26:01;8.9;30.9
78516;SHT31;67815;51.990;5.688;2023-04-03T10:28:42;8.9;30.8
78516;SHT31;67815;51.990;5.688;2023-04-03T10:31:23;8.9;32.5
78516;SHT31;67815;51.990;5.688;2023-04-03T10:34:05;8.9;30.6
78516;SHT31;67815;51.990;5.688;2023-04-03T10:36:42;9.0;30.0
78516;SHT31;67815;51.990;5.688;2023-04-03T10:39:23;9.0;30.9
78516;SHT31;67815;51.990;5.688;2023-04-03T10:42:03;9.0;32.8
78516;SHT31;67815;51.990;5.688;2023-04-03T10:44:41;9.0;31.4
78516;SHT31;67815;51.990;5.688;2023-04-03T10:47:17;9.1;31.4
78516;SHT31;67815;51.990;5.688;2023-04-03T10:49:59;9.1;30.9
78516;SHT31;67815;51.990;5.688;2023-04-03T10:52:39;9.1;32.1
78516;SHT31;67815;51.990;5.688;2023-04-03T10:55:24;9.1;30.5
78516;SHT31;67815;51.990;5.688;2023-04-03T10:57:59;9.1;32.0
78516;SHT31;67815;51.990;5.688;2023-04-03T11:00:36;9.2;32.3
78516;SHT31;67815;51.990;5.688;2023-04-03T11:03:12;9.2;32.7
78516;SHT31;67815;51.990;5.688;2023-04-03T11:05:48;9.2;32.4
78516;SHT31;67815;51.990;5.688;2023-04-03T11:08:28;9.2;32.5
78516;SHT31;67815;51.990;5.688;2023-04-03T11:11:01;9.3;32.1
78516;SHT31;67815;51.990;5.688;2023-04-03T11:13:36;9.3;33.5
78516;SHT31;67815;51.990;5.688;2023-04-03T11:16:08;9.4;34.1
78516;SHT31;67815;51.990;5.688;2023-04-03T11:18:44;9.4;33.4
78516;SHT31;67815;51.990;5.688;2023-04-03T11:21:20;9.5;34.6
78516;SHT31;67815;51.990;5.688;2023-04-03T11:23:56;9.5;35.0
78516;SHT31;67815;51.990;5.688;2023-04-03T11:26:32;9.6;35.1
78516;SHT31;67815;51.990;5.688;2023-04-03T11:29:08;9.7;33.6
78516;SHT31;67815;51.990;5.688;2023-04-03T11:31:53;9.8;33.4
78516;SHT31;67815;51.990;5.688;2023-04-03T11:34:36;9.8;33.0
78516;SHT31;67815;51.990;5.688;2023-04-03T11:37:14;9.9;33.6
78516;SHT31;67815;51.990;5.688;2023-04-03T11:39:54;10.0;32.6
78516;SHT31;67815;51.990;5.688;2023-04-03T11:42:33;10.1;30.4
78516;SHT31;67815;51.990;5.688;2023-04-03T11:45:51;10.1;31.1
78516;SHT31;67815;51.990;5.688;2023-04-03T11:48:46;10.2;32.5
78516;SHT31;67815;51.990;5.688;2023-04-03T11:54:46;10.3;30.5
78516;SHT31;67815;51.990;5.688;2023-04-03T11:59:26;10.3;30.4
78516;SHT31;67815;51.990;5.688;2023-04-03T12:02:02;10.4;31.7
78516;SHT31;67815;51.990;5.688;2023-04-03T12:04:31;10.4;30.6
78516;SHT31;67815;51.990;5.688;2023-04-03T12:10:01;10.5;31.9
78516;SHT31;67815;51.990;5.688;2023-04-03T12:12:39;10.5;31.3
78516;SHT31;67815;51.990;5.688;2023-04-03T12:17:00;10.6;32.3
78516;SHT31;67815;51.990;5.688;2023-04-03T12:19:38;10.6;31.4
78516;SHT31;67815;51.990;5.688;2023-04-03T12:22:13;10.7;30.7
78516;SHT31;67815;51.990;5.688;2023-04-03T12:24:46;10.7;31.7
78516;SHT31;67815;51.990;5.688;2023-04-03T12:27:24;10.8;31.3
78516;SHT31;67815;51.990;5.688;2023-04-03T12:30:00;10.8;31.1
78516;SHT31;67815;51.990;5.688;2023-04-03T12:32:54;10.8;32.9
78516;SHT31;67815;51.990;5.688;2023-04-03T12:35:29;10.9;32.5
78516;SHT31;67815;51.990;5.688;2023-04-03T12:39:36;10.9;34.0
78516;SHT31;67815;51.990;5.688;2023-04-03T12:42:45;11.0;32.9
78516;SHT31;67815;51.990;5.688;2023-04-03T12:45:20;11.0;32.1
78516;SHT31;67815;51.990;5.688;2023-04-03T12:47:53;11.1;33.0
78516;SHT31;67815;51.990;5.688;2023-04-03T12:50:27;11.1;32.6
78516;SHT31;67815;51.990;5.688;2023-04-03T12:53:03;11.1;31.7
78516;SHT31;67815;51.990;5.688;2023-04-03T12:55:34;11.1;32.0
78516;SHT31;67815;51.990;5.688;2023-04-03T12:58:16;11.2;33.6
78516;SHT31;67815;51.990;5.688;2023-04-03T13:00:46;11.2;31.8
78516;SHT31;67815;51.990;5.688;2023-04-03T13:03:25;11.2;33.2
78516;SHT31;67815;51.990;5.688;2023-04-03T13:05:59;11.2;30.2
78516;SHT31;67815;51.990;5.688;2023-04-03T13:08:31;11.2;30.0
78516;SHT31;67815;51.990;5.688;2023-04-03T13:11:06;11.2;31.4
78516;SHT31;67815;51.990;5.688;2023-04-03T13:13:38;11.2;31.2
78516;SHT31;67815;51.990;5.688;2023-04-03T13:16:11;11.3;30.7
78516;SHT31;67815;51.990;5.688;2023-04-03T13:18:41;11.3;32.8
78516;SHT31;67815;51.990;5.688;2023-04-03T13:21:17;11.3;32.2
78516;SHT31;67815;51.990;5.688;2023-04-03T13:23:52;11.3;31.7
78516;SHT31;67815;51.990;5.688;2023-04-03T13:26:25;11.3;32.6
78516;SHT31;67815;51.990;5.688;2023-04-03T13:29:00;11.4;30.6
78516;SHT31;67815;51.990;5.688;2023-04-03T13:31:34;11.4;32.6
78516;SHT31;67815;51.990;5.688;2023-04-03T13:34:09;11.4;30.6
78516;SHT31;67815;51.990;5.688;2023-04-03T13:36:43;11.4;33.1
78516;SHT31;67815;51.990;5.688;2023-04-03T13:39:24;11.4;31.1
78516;SHT31;67815;51.990;5.688;2023-04-03T13:41:55;11.4;32.0
78516;SHT31;67815;51.990;5.688;2023-04-03T13:44:29;11.5;32.6
78516;SHT31;67815;51.990;5.688;2023-04-03T13:47:17;11.5;30.1
78516;SHT31;67815;51.990;5.688;2023-04-03T13:50:02;11.5;30.6
78516;SHT31;67815;51.990;5.688;2023-04-03T13:52:43;11.5;31.0
78516;SHT31;67815;51.990;5.688;2023-04-03T13:55:20;11.6;31.1
78516;SHT31;67815;51.990;5.688;2023-04-03T13:57:55;11.6;35.5
78516;SHT31;67815;51.990;5.688;2023-04-03T14:00:36;11.6;32.5
78516;SHT31;67815;51.990;5.688;2023-04-03T14:03:21;11.6;32.4
78516;SHT31;67815;51.990;5.688;2023-04-03T14:05:51;11.7;33.1
78516;SHT31;67815;51.990;5.688;2023-04-03T14:08:21;11.7;33.3
78516;SHT31;67815;51.990;5.688;2023-04-03T14:10:51;11.7;34.0
78516;SHT31;67815;51.990;5.688;2023-04-03T14:13:21;11.8;33.0
78516;SHT31;67815;51.990;5.688;2023-04-03T14:15:51;11.8;33.1
78516;SHT31;67815;51.990;5.688;2023-04-03T14:18:21;11.9;31.4
78516;SHT31;67815;51.990;5.688;2023-04-03T14:21:08;11.9;33.8
78516;SHT31;67815;51.990;5.688;2023-04-03T14:23:57;11.9;32.2
78516;SHT31;67815;51.990;5.688;2023-04-03T14:26:28;12.0;33.8
78516;SHT31;67815;51.990;5.688;2023-04-03T14:28:58;12.0;32.3
78516;SHT31;67815;51.990;5.688;2023-04-03T14:31:28;12.0;32.3
78516;SHT31;67815;51.990;5.688;2023-04-03T14:33:57;12.0;33.0
78516;SHT31;67815;51.990;5.688;2023-04-03T14:36:31;12.1;31.4
78516;SHT31;67815;51.990;5.688;2023-04-03T14:39:01;12.1;31.8
78516;SHT31;67815;51.990;5.688;2023-04-03T14:41:32;12.1;30.9
78516;SHT31;67815;51.990;5.688;2023-04-03T14:44:02;12.1;31.6
78516;SHT31;67815;51.990;5.688;2023-04-03T14:46:53;12.1;34.1
78516;SHT31;67815;51.990;5.688;2023-04-03T14:49:27;12.1;32.7
78516;SHT31;67815;51.990;5.688;2023-04-03T14:51:59;12.1;31.7
78516;SHT31;67815;51.990;5.688;2023-04-03T14:54:29;12.1;32.8
78516;SHT31;67815;51.990;5.688;2023-04-03T14:57:00;12.2;32.0
78516;SHT31;67815;51.990;5.688;2023-04-03T14:59:32;12.2;31.2
78516;SHT31;67815;51.990;5.688;2023-04-03T15:02:01;12.2;32.8
78516;SHT31;67815;51.990;5.688;2023-04-03T15:04:54;12.2;32.9
78516;SHT31;67815;51.990;5.688;2023-04-03T15:07:26;12.2;32.0
78516;SHT31;67815;51.990;5.688;2023-04-03T15:13:18;12.2;32.0
78516;SHT31;67815;51.990;5.688;2023-04-03T15:15:48;12.2;32.8
78516;SHT31;67815;51.990;5.688;2023-04-03T15:18:22;12.2;31.6
78516;SHT31;67815;51.990;5.688;2023-04-03T15:20:54;12.3;33.8
78516;SHT31;67815;51.990;5.688;2023-04-03T15:23:24;12.3;34.3
78516;SHT31;67815;51.990;5.688;2023-04-03T15:25:56;12.3;33.0
78516;SHT31;67815;51.990;5.688;2023-04-03T15:28:29;12.3;32.7
78516;SHT31;67815;51.990;5.688;2023-04-03T15:34:21;12.4;32.5
78516;SHT31;67815;51.990;5.688;2023-04-03T15:36:50;12.4;32.8
78516;SHT31;67815;51.990;5.688;2023-04-03T15:39:21;12.4;32.2
78516;SHT31;67815;51.990;5.688;2023-04-03T15:41:51;12.4;32.6
78516;SHT31;67815;51.990;5.688;2023-04-03T15:44:21;12.4;32.3
78516;SHT31;67815;51.990;5.688;2023-04-03T15:46:51;12.4;32.8
78516;SHT31;67815;51.990;5.688;2023-04-03T15:52:25;12.4;33.9
78516;SHT31;67815;51.990;5.688;2023-04-03T15:54:54;12.4;32.2
78516;SHT31;67815;51.990;5.688;2023-04-03T15:57:26;12.4;33.2
78516;SHT31;67815;51.990;5.688;2023-04-03T15:59:55;12.4;33.6
78516;SHT31;67815;51.990;5.688;2023-04-03T16:02:26;12.4;33.4
78516;SHT31;67815;51.990;5.688;2023-04-03T16:04:57;12.4;32.9
78516;SHT31;67815;51.990;5.688;2023-04-03T16:07:27;12.4;34.9
78516;SHT31;67815;51.990;5.688;2023-04-03T16:09:57;12.4;32.2
78516;SHT31;67815;51.990;5.688;2023-04-03T16:12:27;12.4;34.7
78516;SHT31;67815;51.990;5.688;2023-04-03T16:14:56;12.3;33.3
78516;SHT31;67815;51.990;5.688;2023-04-03T16:17:27;12.3;33.2
78516;SHT31;67815;51.990;5.688;2023-04-03T16:26:25;12.2;33.2
78516;SHT31;67815;51.990;5.688;2023-04-03T16:28:54;12.2;33.6
78516;SHT31;67815;51.990;5.688;2023-04-03T16:31:25;12.1;32.8
78516;SHT31;67815;51.990;5.688;2023-04-03T16:33:56;12.1;34.0
78516;SHT31;67815;51.990;5.688;2023-04-03T16:36:26;12.1;33.6
78516;SHT31;67815;51.990;5.688;2023-04-03T16:38:55;12.0;34.1
78516;SHT31;67815;51.990;5.688;2023-04-03T16:41:25;12.0;34.8
78516;SHT31;67815;51.990;5.688;2023-04-03T16:43:55;12.0;33.9
78516;SHT31;67815;51.990;5.688;2023-04-03T16:46:24;11.9;35.1
78516;SHT31;67815;51.990;5.688;2023-04-03T16:48:54;11.9;33.9
78516;SHT31;67815;51.990;5.688;2023-04-03T16:51:24;11.9;33.8
78516;SHT31;67815;51.990;5.688;2023-04-03T16:53:53;11.8;34.2
78516;SHT31;67815;51.990;5.688;2023-04-03T16:56:24;11.8;33.7
78516;SHT31;67815;51.990;5.688;2023-04-03T16:58:54;11.7;35.1
78516;SHT31;67815;51.990;5.688;2023-04-03T17:01:26;11.7;35.0
78516;SHT31;67815;51.990;5.688;2023-04-03T17:03:55;11.6;35.4
78516;SHT31;67815;51.990;5.688;2023-04-03T17:06:25;11.6;36.0
78516;SHT31;67815;51.990;5.688;2023-04-03T17:08:54;11.6;35.3
78516;SHT31;67815;51.990;5.688;2023-04-03T17:11:27;11.6;35.0
78516;SHT31;67815;51.990;5.688;2023-04-03T17:13:57;11.6;35.5
78516;SHT31;67815;51.990;5.688;2023-04-03T17:16:28;11.5;35.7
78516;SHT31;67815;51.990;5.688;2023-04-03T17:22:19;11.4;34.1
78516;SHT31;67815;51.990;5.688;2023-04-03T17:24:49;11.4;34.1
78516;SHT31;67815;51.990;5.688;2023-04-03T17:27:19;11.3;34.6
78516;SHT31;67815;51.990;5.688;2023-04-03T17:29:48;11.3;34.3
78516;SHT31;67815;51.990;5.688;2023-04-03T17:32:18;11.3;34.6
78516;SHT31;67815;51.990;5.688;2023-04-03T17:34:47;11.2;36.1
78516;SHT31;67815;51.990;5.688;2023-04-03T17:40:22;11.2;35.8
78516;SHT31;67815;51.990;5.688;2023-04-03T17:42:53;11.1;35.2
78516;SHT31;67815;51.990;5.688;2023-04-03T17:45:24;11.1;35.7
78516;SHT31;67815;51.990;5.688;2023-04-03T17:47:54;11.1;36.3
78516;SHT31;67815;51.990;5.688;2023-04-03T17:51:00;11.1;38.2
78516;SHT31;67815;51.990;5.688;2023-04-03T17:53:32;11.1;36.7